ΕΜΥ, Εθνική Μετεωρολογική Υπηρεσία - Δελτία Καιρού, Προγνώσεις

ΑΕΡΟΝΑΥΤΙΛΙΑ

GREEK AIRPORTS CODES

EUROPEAN AIRPORTS CODES

LFPO 231230Z 21011KT 180V240 9999 VCSH SCT023 FEW040TCUBKN049 08/03 Q0994 TEMPO 21015G25KT SHRA BKN014TCU=